Time;durP1;ratioP1;P1;durP2;ratioP2;P2;SDS_P1;SDS_P2;PMS_P1;PMS_P2;Temp;Humidity;BMP_temperature;BMP_pressure;BME280_temperature;BME280_humidity;BME280_pressure;Samples;Min_cycle;Max_cycle;Signal;HPM_P1;HPM_P2
2021/10/24 00:01:50;;;;;;;69.30;6.93;;;;;;;;;;5094771;28;20032;-76
2021/10/24 00:04:16;;;;;;;16.70;6.43;;;;;;;;;;5094409;28;20046;-76
2021/10/24 00:06:41;;;;;;;37.15;6.15;;;;;;;;;;5094524;28;20043;-76
2021/10/24 00:09:07;;;;;;;12.43;6.28;;;;;;;;;;5094346;28;20032;-76
2021/10/24 00:11:34;;;;;;;40.63;5.95;;;;;;;;;;5094027;28;20074;-76
2021/10/24 00:14:02;;;;;;;49.17;7.22;;;;;;;;;;5094042;28;20415;-76
2021/10/24 00:16:27;;;;;;;13.80;7.55;;;;;;;;;;5094493;28;20035;-76
2021/10/24 00:18:53;;;;;;;19.73;7.43;;;;;;;;;;5094324;28;20154;-76
2021/10/24 00:21:18;;;;;;;110.30;10.30;;;;;;;;;;5093835;28;20043;-76
2021/10/24 00:23:44;;;;;;;48.65;8.38;;;;;;;;;;5093095;28;20108;-75
2021/10/24 00:26:09;;;;;;;119.40;9.80;;;;;;;;;;5093979;28;20392;-76
2021/10/24 00:28:34;;;;;;;42.38;10.32;;;;;;;;;;5093866;28;20040;-75
2021/10/24 00:31:00;;;;;;;18.77;9.40;;;;;;;;;;5093345;28;20028;-75
2021/10/24 00:33:25;;;;;;;133.52;11.95;;;;;;;;;;5093851;28;20081;-76
2021/10/24 00:35:52;;;;;;;60.38;9.05;;;;;;;;;;5092553;28;20478;-75
2021/10/24 00:38:17;;;;;;;204.93;10.32;;;;;;;;;;5093805;28;20042;-75
2021/10/24 00:40:43;;;;;;;118.78;9.55;;;;;;;;;;5093760;28;20134;-76
2021/10/24 00:43:08;;;;;;;36.40;8.77;;;;;;;;;;5092588;28;20038;-76
2021/10/24 00:45:34;;;;;;;28.50;8.70;;;;;;;;;;5091692;28;20120;-75
2021/10/24 00:47:59;;;;;;;34.63;10.15;;;;;;;;;;5093658;28;20040;-75
2021/10/24 00:50:26;;;;;;;29.88;10.77;;;;;;;;;;5093711;28;20058;-75
2021/10/24 00:52:52;;;;;;;22.98;9.05;;;;;;;;;;5093669;28;20047;-76
2021/10/24 00:55:20;;;;;;;34.35;10.30;;;;;;;;;;5093767;28;20492;-76
2021/10/24 00:57:45;;;;;;;31.90;9.80;;;;;;;;;;5093330;28;20477;-76
2021/10/24 01:00:12;;;;;;;53.35;10.23;;;;;;;;;;5092078;28;20087;-75
2021/10/24 01:02:39;;;;;;;20.25;10.38;;;;;;;;;;5093489;28;20036;-75
2021/10/24 01:05:07;;;;;;;25.83;7.22;;;;;;;;;;5093646;28;20036;-76
2021/10/24 01:07:34;;;;;;;14.23;7.25;;;;;;;;;;5092009;28;20032;-75
2021/10/24 01:10:00;;;;;;;43.65;7.75;;;;;;;;;;5092284;28;20115;-75
2021/10/24 01:12:26;;;;;;;25.73;7.25;;;;;;;;;;5091995;28;20035;-75
2021/10/24 01:14:51;;;;;;;23.00;8.85;;;;;;;;;;5093261;28;20028;-75
2021/10/24 01:17:17;;;;;;;26.02;7.63;;;;;;;;;;5093229;28;20099;-75
2021/10/24 01:19:43;;;;;;;18.10;7.18;;;;;;;;;;5091959;28;20424;-75
2021/10/24 01:22:09;;;;;;;21.50;7.60;;;;;;;;;;5091928;28;20120;-75
2021/10/24 01:24:35;;;;;;;28.90;6.82;;;;;;;;;;5091201;28;20055;-75
2021/10/24 01:27:01;;;;;;;33.65;6.45;;;;;;;;;;5091889;28;20070;-75
2021/10/24 01:29:26;;;;;;;9.13;5.70;;;;;;;;;;5091929;28;20396;-75
2021/10/24 01:31:53;;;;;;;8.35;5.28;;;;;;;;;;5093290;28;20040;-75
2021/10/24 01:34:19;;;;;;;17.02;5.20;;;;;;;;;;5091904;28;20040;-75
2021/10/24 01:36:45;;;;;;;11.48;4.85;;;;;;;;;;5075180;28;20528;-75
2021/10/24 01:39:10;;;;;;;14.73;4.10;;;;;;;;;;5092117;28;20039;-75
2021/10/24 01:41:36;;;;;;;12.63;4.40;;;;;;;;;;5092876;28;20047;-75
2021/10/24 01:44:02;;;;;;;20.98;5.07;;;;;;;;;;5091786;28;20036;-75
2021/10/24 01:46:28;;;;;;;16.10;4.25;;;;;;;;;;5091825;28;20032;-75
2021/10/24 01:48:53;;;;;;;17.70;5.03;;;;;;;;;;5093281;28;20039;-75
2021/10/24 01:51:19;;;;;;;8.52;4.35;;;;;;;;;;5091884;28;20094;-75
2021/10/24 01:53:46;;;;;;;16.00;5.18;;;;;;;;;;5090695;28;20059;-75
2021/10/24 01:56:13;;;;;;;15.68;6.53;;;;;;;;;;5091606;28;20028;-75
2021/10/24 01:58:41;;;;;;;35.13;5.88;;;;;;;;;;5078615;28;20024;-76
2021/10/24 02:01:09;;;;;;;35.35;7.18;;;;;;;;;;5095604;28;20085;-75
2021/10/24 02:03:53;;;;;;;85.43;7.63;;;;;;;;;;5096761;28;20105;-75
2021/10/24 02:06:28;;;;;;;30.10;6.43;;;;;;;;;;5096589;28;20039;-75
2021/10/24 02:08:54;;;;;;;100.82;8.07;;;;;;;;;;5094352;28;20032;-75
2021/10/24 02:11:21;;;;;;;67.45;6.32;;;;;;;;;;5095279;28;20035;-75
2021/10/24 02:13:47;;;;;;;222.27;8.93;;;;;;;;;;5095368;28;20031;-75
2021/10/24 02:16:12;;;;;;;10.63;6.00;;;;;;;;;;5095612;28;20114;-75
2021/10/24 02:18:44;;;;;;;198.63;7.82;;;;;;;;;;5095200;28;20062;-75
2021/10/24 02:21:09;;;;;;;194.77;7.90;;;;;;;;;;5096363;28;20052;-75
2021/10/24 02:23:38;;;;;;;104.38;7.00;;;;;;;;;;5094185;28;20445;-75
2021/10/24 02:26:05;;;;;;;136.93;6.82;;;;;;;;;;5095039;28;20043;-76
2021/10/24 02:28:31;;;;;;;18.15;6.55;;;;;;;;;;5096075;28;20032;-75
2021/10/24 02:30:56;;;;;;;12.32;5.13;;;;;;;;;;5096256;28;20032;-75
2021/10/24 02:33:40;;;;;;;112.80;7.60;;;;;;;;;;5096378;28;20079;-75
2021/10/24 02:36:31;;;;;;;28.80;5.95;;;;;;;;;;5080031;28;20115;-75
2021/10/24 02:39:01;;;;;;;10.05;5.63;;;;;;;;;;5093961;28;20488;-75
2021/10/24 02:41:29;;;;;;;35.08;5.72;;;;;;;;;;5094751;28;20125;-75
2021/10/24 02:43:58;;;;;;;20.90;5.75;;;;;;;;;;5094921;28;20060;-75
2021/10/24 02:46:27;;;;;;;16.95;5.25;;;;;;;;;;5094798;28;20031;-76
2021/10/24 02:48:53;;;;;;;25.92;6.15;;;;;;;;;;5094610;28;20097;-75
2021/10/24 02:51:19;;;;;;;27.42;6.65;;;;;;;;;;5093975;28;20539;-76
2021/10/24 02:53:44;;;;;;;10.50;5.57;;;;;;;;;;5094664;28;20126;-76
2021/10/24 02:56:10;;;;;;;45.00;4.78;;;;;;;;;;5094791;28;20043;-75
2021/10/24 02:58:36;;;;;;;30.77;5.75;;;;;;;;;;5094169;28;20024;-75
2021/10/24 03:01:02;;;;;;;13.25;5.25;;;;;;;;;;5094613;28;20035;-76
2021/10/24 03:03:29;;;;;;;23.73;5.03;;;;;;;;;;5094287;28;20028;-75
2021/10/24 03:05:54;;;;;;;21.63;5.78;;;;;;;;;;5094231;28;20054;-75
2021/10/24 03:08:19;;;;;;;13.27;5.70;;;;;;;;;;5093187;28;20024;-75
2021/10/24 03:10:45;;;;;;;27.48;7.13;;;;;;;;;;5093988;28;20517;-75
2021/10/24 03:13:12;;;;;;;6.15;4.18;;;;;;;;;;5093910;28;20545;-75
2021/10/24 03:15:37;;;;;;;8.93;5.07;;;;;;;;;;5094216;28;20028;-75
2021/10/24 03:18:03;;;;;;;27.40;5.60;;;;;;;;;;5094283;28;20493;-76
2021/10/24 03:20:28;;;;;;;18.75;5.95;;;;;;;;;;5094057;28;20028;-76
2021/10/24 03:22:54;;;;;;;18.42;5.05;;;;;;;;;;5093977;28;20097;-76
2021/10/24 03:25:19;;;;;;;60.70;5.65;;;;;;;;;;5093612;28;20039;-75
2021/10/24 03:27:44;;;;;;;6.75;4.47;;;;;;;;;;5093806;28;20040;-75
2021/10/24 03:30:16;;;;;;;23.98;5.93;;;;;;;;;;5094032;28;20032;-76
2021/10/24 03:32:41;;;;;;;57.70;6.55;;;;;;;;;;5093898;28;20036;-75
2021/10/24 03:35:07;;;;;;;33.17;6.30;;;;;;;;;;5093927;28;20400;-75
2021/10/24 03:37:32;;;;;;;47.50;5.45;;;;;;;;;;5094021;28;20051;-76
2021/10/24 03:39:58;;;;;;;12.23;6.38;;;;;;;;;;5093129;28;20056;-76
2021/10/24 03:42:23;;;;;;;46.83;6.72;;;;;;;;;;5094888;28;20036;-76
2021/10/24 03:44:48;;;;;;;89.65;6.88;;;;;;;;;;5093804;28;20032;-76
2021/10/24 03:47:18;;;;;;;27.08;6.35;;;;;;;;;;5093495;28;20035;-75
2021/10/24 03:49:44;;;;;;;38.63;6.18;;;;;;;;;;5093607;28;20397;-76
2021/10/24 03:52:09;;;;;;;78.22;7.57;;;;;;;;;;5093387;28;20043;-76
2021/10/24 03:54:34;;;;;;;38.08;6.07;;;;;;;;;;5092081;28;20048;-75
2021/10/24 03:57:00;;;;;;;79.90;6.97;;;;;;;;;;5093051;28;20039;-75
2021/10/24 03:59:25;;;;;;;156.02;7.55;;;;;;;;;;5093460;28;20032;-76
2021/10/24 04:01:52;;;;;;;39.63;6.85;;;;;;;;;;5092987;28;20036;-76
2021/10/24 04:04:17;;;;;;;56.72;7.95;;;;;;;;;;5093539;28;20032;-76
2021/10/24 04:06:43;;;;;;;109.30;6.45;;;;;;;;;;5092511;28;20036;-75
2021/10/24 04:09:09;;;;;;;116.90;5.60;;;;;;;;;;5092740;28;20554;-76
2021/10/24 04:11:35;;;;;;;50.50;5.53;;;;;;;;;;5092877;28;20046;-75
2021/10/24 04:14:03;;;;;;;48.70;5.72;;;;;;;;;;5093330;28;20036;-76
2021/10/24 04:16:28;;;;;;;45.40;6.10;;;;;;;;;;5094025;28;20051;-75
2021/10/24 04:19:05;;;;;;;34.13;6.20;;;;;;;;;;5093190;28;20031;-75
2021/10/24 04:21:34;;;;;;;78.63;5.63;;;;;;;;;;5092421;28;20056;-75
2021/10/24 04:23:59;;;;;;;132.65;6.47;;;;;;;;;;5093890;28;20478;-75
2021/10/24 04:26:25;;;;;;;55.88;5.72;;;;;;;;;;5092932;28;20127;-75
2021/10/24 04:28:53;;;;;;;134.38;7.03;;;;;;;;;;5092734;28;20055;-75
2021/10/24 04:31:21;;;;;;;69.70;6.50;;;;;;;;;;5075762;28;20035;-75
2021/10/24 04:33:47;;;;;;;87.93;5.93;;;;;;;;;;5092696;28;20028;-75
2021/10/24 04:36:12;;;;;;;92.88;5.68;;;;;;;;;;5092316;28;20040;-75
2021/10/24 04:38:37;;;;;;;56.65;5.95;;;;;;;;;;5092441;28;20110;-75
2021/10/24 04:41:03;;;;;;;34.00;5.88;;;;;;;;;;5092347;28;20385;-75
2021/10/24 04:43:28;;;;;;;78.35;5.78;;;;;;;;;;5092647;28;20032;-75
2021/10/24 04:45:55;;;;;;;18.00;5.68;;;;;;;;;;5092465;28;20027;-75
2021/10/24 04:48:23;;;;;;;87.18;6.32;;;;;;;;;;5092315;28;20081;-75
2021/10/24 04:50:48;;;;;;;75.55;5.85;;;;;;;;;;5092289;28;20024;-75
2021/10/24 04:53:16;;;;;;;44.08;5.32;;;;;;;;;;5092491;28;20062;-75
2021/10/24 04:55:43;;;;;;;16.88;5.07;;;;;;;;;;5075731;28;20032;-75
2021/10/24 04:58:09;;;;;;;37.20;5.03;;;;;;;;;;5091973;28;20024;-75
2021/10/24 05:00:37;;;;;;;62.13;5.13;;;;;;;;;;5092235;28;20043;-75
2021/10/24 05:03:03;;;;;;;60.92;5.80;;;;;;;;;;5092411;28;20031;-75
2021/10/24 05:05:29;;;;;;;59.13;7.55;;;;;;;;;;5092370;28;20024;-75
2021/10/24 05:07:54;;;;;;;77.60;6.00;;;;;;;;;;5092861;28;20038;-75
2021/10/24 05:10:20;;;;;;;12.48;5.20;;;;;;;;;;5092406;28;20028;-75
2021/10/24 05:12:45;;;;;;;106.30;5.93;;;;;;;;;;5092227;28;20497;-75
2021/10/24 05:15:12;;;;;;;102.00;5.72;;;;;;;;;;5092329;28;20035;-75
2021/10/24 05:17:38;;;;;;;64.68;5.43;;;;;;;;;;5092097;28;20028;-75
2021/10/24 05:20:08;;;;;;;72.53;5.90;;;;;;;;;;5100947;28;20513;-75
2021/10/24 05:22:52;;;;;;;78.50;5.78;;;;;;;;;;5089259;28;20032;-75
2021/10/24 05:25:22;;;;;;;86.32;5.20;;;;;;;;;;5122384;28;20045;-75
2021/10/24 05:27:53;;;;;;;77.72;5.40;;;;;;;;;;5095421;28;20028;-75
2021/10/24 05:30:20;;;;;;;82.88;5.30;;;;;;;;;;5094265;28;20028;-75
2021/10/24 05:32:46;;;;;;;65.22;5.43;;;;;;;;;;5096184;28;20508;-75
2021/10/24 05:35:12;;;;;;;82.85;5.60;;;;;;;;;;5098594;28;20060;-75
2021/10/24 05:37:37;;;;;;;97.90;6.22;;;;;;;;;;5098168;28;20024;-75
2021/10/24 05:40:03;;;;;;;90.28;6.40;;;;;;;;;;5099347;28;20133;-75
2021/10/24 05:42:40;;;;;;;80.55;7.38;;;;;;;;;;5098252;28;20103;-75
2021/10/24 05:45:06;;;;;;;54.60;7.78;;;;;;;;;;5100108;28;20086;-75
2021/10/24 05:47:35;;;;;;;77.50;6.80;;;;;;;;;;5098202;28;20032;-75
2021/10/24 05:50:05;;;;;;;71.03;7.03;;;;;;;;;;5097839;28;20093;-75
2021/10/24 05:52:30;;;;;;;69.47;6.00;;;;;;;;;;5095961;28;20063;-75
2021/10/24 05:54:56;;;;;;;150.38;7.88;;;;;;;;;;5097812;28;20043;-75
2021/10/24 05:57:22;;;;;;;38.72;6.18;;;;;;;;;;5096936;28;20039;-75
2021/10/24 06:00:07;;;;;;;94.55;7.70;;;;;;;;;;5098429;28;20097;-75
2021/10/24 06:02:44;;;;;;;131.10;7.68;;;;;;;;;;5098810;28;20118;-75
2021/10/24 06:05:28;;;;;;;78.50;7.72;;;;;;;;;;5098164;28;20385;-75
2021/10/24 06:07:54;;;;;;;87.55;6.82;;;;;;;;;;5096510;28;20028;-75
2021/10/24 06:10:22;;;;;;;65.13;7.10;;;;;;;;;;5095624;28;20031;-76
2021/10/24 06:12:53;;;;;;;46.03;6.93;;;;;;;;;;5096477;28;20039;-77
2021/10/24 06:15:20;;;;;;;32.30;6.88;;;;;;;;;;5097338;28;20028;-77
2021/10/24 06:17:48;;;;;;;103.07;8.25;;;;;;;;;;5095717;28;20024;-76
2021/10/24 06:20:15;;;;;;;137.15;10.98;;;;;;;;;;5096937;28;20405;-76
2021/10/24 06:22:43;;;;;;;136.98;11.05;;;;;;;;;;5095278;28;20158;-77
2021/10/24 06:25:11;;;;;;;59.20;9.23;;;;;;;;;;5095263;28;20032;-77
2021/10/24 06:27:39;;;;;;;57.70;9.70;;;;;;;;;;5095651;28;20035;-77
2021/10/24 06:30:07;;;;;;;134.38;9.77;;;;;;;;;;5094883;28;20043;-77
2021/10/24 06:32:51;;;;;;;68.75;14.75;;;;;;;;;;5096927;28;20407;-77
2021/10/24 06:35:46;;;;;;;106.15;11.82;;;;;;;;;;5090821;28;20040;-77
2021/10/24 06:38:17;;;;;;;31.52;9.27;;;;;;;;;;5096239;28;20474;-77
2021/10/24 06:40:44;;;;;;;45.97;10.15;;;;;;;;;;5094974;28;20046;-77
2021/10/24 06:43:09;;;;;;;23.13;7.90;;;;;;;;;;5094624;28;20028;-76
2021/10/24 06:45:53;;;;;;;33.83;6.95;;;;;;;;;;5095916;28;20116;-76
2021/10/24 06:48:37;;;;;;;28.50;11.40;;;;;;;;;;5076522;28;20074;-77
2021/10/24 06:51:07;;;;;;;26.17;13.38;;;;;;;;;;5074482;28;20028;-76
2021/10/24 06:53:51;;;;;;;94.25;19.60;;;;;;;;;;5075819;28;20562;-76
2021/10/24 06:56:54;;;;;;;25.42;12.60;;;;;;;;;;5073466;28;20071;-76
2021/10/24 06:59:42;;;;;;;28.92;9.07;;;;;;;;;;5075930;28;20051;-77
2021/10/24 07:02:26;;;;;;;57.78;9.70;;;;;;;;;;5075674;28;20090;-76
2021/10/24 07:05:18;;;;;;;22.95;10.25;;;;;;;;;;5067986;28;20044;-77
2021/10/24 07:07:46;;;;;;;69.50;10.07;;;;;;;;;;5075242;28;20449;-77
2021/10/24 07:10:13;;;;;;;16.35;7.22;;;;;;;;;;5074597;28;20119;-77
2021/10/24 07:12:39;;;;;;;74.32;7.93;;;;;;;;;;5058212;28;20085;-77
2021/10/24 07:15:07;;;;;;;93.63;9.10;;;;;;;;;;5074967;28;20043;-77
2021/10/24 07:17:34;;;;;;;12.70;7.82;;;;;;;;;;5083663;28;20055;-79
2021/10/24 07:20:00;;;;;;;40.80;7.32;;;;;;;;;;5094361;28;20036;-75
2021/10/24 07:22:26;;;;;;;39.05;7.53;;;;;;;;;;5093140;28;20059;-76
2021/10/24 07:25:02;;;;;;;16.55;6.10;;;;;;;;;;5095127;28;20062;-76
2021/10/24 07:27:38;;;;;;;73.43;7.47;;;;;;;;;;5093876;28;20053;-76
2021/10/24 07:30:05;;;;;;;32.35;6.78;;;;;;;;;;5094084;28;20076;-76
2021/10/24 07:32:40;;;;;;;54.72;8.10;;;;;;;;;;5093966;28;20048;-76
2021/10/24 07:35:34;;;;;;;37.70;8.13;;;;;;;;;;5090460;28;20096;-76
2021/10/24 07:38:05;;;;;;;72.75;8.73;;;;;;;;;;5093682;28;20486;-76
2021/10/24 07:40:39;;;;;;;48.10;8.27;;;;;;;;;;5093311;28;20194;-77
2021/10/24 07:43:09;;;;;;;44.28;7.97;;;;;;;;;;5092379;28;20057;-77
2021/10/24 07:45:35;;;;;;;24.30;8.77;;;;;;;;;;5094057;28;20537;-77
2021/10/24 07:48:00;;;;;;;28.27;9.20;;;;;;;;;;5094584;28;20036;-77
2021/10/24 07:50:28;;;;;;;24.50;8.07;;;;;;;;;;5095234;28;20024;-77
2021/10/24 07:52:54;;;;;;;29.52;6.43;;;;;;;;;;5093612;28;20039;-78
2021/10/24 07:55:32;;;;;;;11.30;6.78;;;;;;;;;;5093581;28;20036;-78
2021/10/24 07:57:58;;;;;;;16.48;6.85;;;;;;;;;;5087268;28;20036;-76
2021/10/24 08:00:23;;;;;;;12.18;7.63;;;;;;;;;;5083268;28;20025;-76
2021/10/24 08:02:50;;;;;;;28.27;7.28;;;;;;;;;;5072973;28;20063;-76
2021/10/24 08:05:17;;;;;;;13.25;6.30;;;;;;;;;;5080721;28;20025;-76
2021/10/24 08:07:43;;;;;;;16.83;7.07;;;;;;;;;;5091440;28;20058;-76
2021/10/24 08:10:11;;;;;;;14.00;6.60;;;;;;;;;;5093391;28;20123;-75
2021/10/24 08:12:40;;;;;;;16.55;6.28;;;;;;;;;;5094814;28;20127;-77
2021/10/24 08:15:07;;;;;;;11.73;6.90;;;;;;;;;;5093761;28;20420;-77
2021/10/24 08:17:33;;;;;;;15.68;7.28;;;;;;;;;;5093190;28;20085;-77
2021/10/24 08:20:19;;;;;;;24.95;16.10;;;;;;;;;;5093988;28;20473;-76
2021/10/24 08:22:44;;;;;;;16.00;7.30;;;;;;;;;;5092090;28;20038;-76
2021/10/24 08:25:11;;;;;;;21.92;12.73;;;;;;;;;;5094237;28;20028;-76
2021/10/24 08:27:37;;;;;;;19.33;6.60;;;;;;;;;;5092801;28;20082;-76
2021/10/24 08:30:21;;;;;;;14.55;8.20;;;;;;;;;;5093715;28;20093;-76
2021/10/24 08:33:06;;;;;;;17.88;7.22;;;;;;;;;;5078394;28;20036;-76
2021/10/24 08:35:31;;;;;;;13.05;6.95;;;;;;;;;;5088115;28;20070;-76
2021/10/24 08:37:57;;;;;;;10.65;6.10;;;;;;;;;;5073468;28;20378;-76
2021/10/24 08:40:22;;;;;;;11.30;5.32;;;;;;;;;;5083208;28;20402;-76
2021/10/24 08:42:53;;;;;;;10.02;5.95;;;;;;;;;;5094004;28;20112;-76
2021/10/24 08:45:19;;;;;;;12.30;5.40;;;;;;;;;;5094136;28;20448;-76
2021/10/24 08:47:45;;;;;;;12.00;5.97;;;;;;;;;;5093526;28;20122;-76
2021/10/24 08:50:12;;;;;;;14.57;6.53;;;;;;;;;;5093686;28;20039;-76
2021/10/24 08:52:39;;;;;;;7.13;5.03;;;;;;;;;;5094039;28;20031;-77
2021/10/24 08:55:06;;;;;;;8.93;5.00;;;;;;;;;;5097155;28;20063;-78
2021/10/24 08:57:32;;;;;;;8.00;4.85;;;;;;;;;;5095780;28;20050;-78
2021/10/24 08:59:58;;;;;;;10.90;5.32;;;;;;;;;;5095571;28;20482;-78
2021/10/24 09:03:15;;;;;;;7.85;4.60;;;;;;;;;;5094154;28;20093;-78
2021/10/24 09:05:49;;;;;;;7.70;4.32;;;;;;;;;;5081254;28;20100;-77
2021/10/24 09:08:24;;;;;;;8.07;4.75;;;;;;;;;;5093198;28;20043;-77
2021/10/24 09:10:51;;;;;;;12.93;5.47;;;;;;;;;;5093369;28;20422;-77
2021/10/24 09:13:22;;;;;;;8.52;5.00;;;;;;;;;;5079375;28;20033;-76
2021/10/24 09:15:48;;;;;;;9.80;4.65;;;;;;;;;;5071695;28;20036;-77
2021/10/24 09:18:15;;;;;;;9.25;4.38;;;;;;;;;;5072940;28;20470;-77
2021/10/24 09:20:42;;;;;;;11.88;4.88;;;;;;;;;;5073298;28;20025;-77
2021/10/24 09:23:10;;;;;;;7.50;4.85;;;;;;;;;;5083345;28;20029;-77
2021/10/24 09:26:01;;;;;;;7.95;4.75;;;;;;;;;;5082702;28;20073;-76
2021/10/24 09:28:27;;;;;;;8.05;5.18;;;;;;;;;;5078211;28;20048;-76
2021/10/24 09:31:05;;;;;;;10.07;4.78;;;;;;;;;;5083211;28;20045;-78
2021/10/24 09:33:45;;;;;;;5.53;3.97;;;;;;;;;;5082905;28;20024;-77
2021/10/24 09:36:11;;;;;;;7.95;3.92;;;;;;;;;;5087674;28;20101;-77
2021/10/24 09:39:09;;;;;;;8.02;4.43;;;;;;;;;;5092902;28;20115;-77
2021/10/24 09:41:35;;;;;;;7.60;5.03;;;;;;;;;;5092662;28;20048;-77
2021/10/24 09:44:14;;;;;;;9.25;4.55;;;;;;;;;;5087211;28;20032;-77
2021/10/24 09:46:57;;;;;;;5.80;4.10;;;;;;;;;;5083495;28;20048;-77
2021/10/24 09:49:23;;;;;;;9.85;4.90;;;;;;;;;;5083386;28;20051;-77
2021/10/24 09:51:52;;;;;;;7.38;4.13;;;;;;;;;;5080934;28;20037;-77
2021/10/24 09:54:25;;;;;;;7.13;4.40;;;;;;;;;;5080763;28;20032;-77
2021/10/24 09:56:52;;;;;;;10.23;4.85;;;;;;;;;;5082499;28;20032;-77
2021/10/24 09:59:22;;;;;;;7.47;4.22;;;;;;;;;;5064892;28;20627;-76
2021/10/24 10:01:50;;;;;;;7.25;4.20;;;;;;;;;;5081912;28;20037;-77
2021/10/24 10:04:17;;;;;;;8.82;3.80;;;;;;;;;;5084011;28;20028;-77
2021/10/24 10:06:44;;;;;;;6.68;4.20;;;;;;;;;;5081422;28;20482;-76
2021/10/24 10:09:12;;;;;;;10.77;4.00;;;;;;;;;;5082052;28;20504;-77
2021/10/24 10:11:46;;;;;;;5.82;3.53;;;;;;;;;;5082884;28;20103;-77
2021/10/24 10:14:23;;;;;;;7.70;3.58;;;;;;;;;;5082056;28;20028;-77
2021/10/24 10:16:57;;;;;;;4.78;2.70;;;;;;;;;;5083178;28;20035;-76
2021/10/24 10:19:30;;;;;;;6.40;3.60;;;;;;;;;;5083789;28;20077;-76
2021/10/24 10:21:56;;;;;;;9.32;4.05;;;;;;;;;;5085629;28;20428;-77
2021/10/24 10:24:33;;;;;;;9.13;3.53;;;;;;;;;;5091809;28;20106;-77
2021/10/24 10:26:59;;;;;;;7.32;3.40;;;;;;;;;;5096060;28;20114;-77
2021/10/24 10:29:50;;;;;;;7.82;3.60;;;;;;;;;;5096361;28;20359;-76
2021/10/24 10:32:17;;;;;;;7.80;3.40;;;;;;;;;;5096106;28;20051;-77
2021/10/24 10:34:58;;;;;;;5.75;3.00;;;;;;;;;;5096966;28;20118;-77
2021/10/24 10:37:51;;;;;;;7.70;3.15;;;;;;;;;;5096069;28;20123;-76
2021/10/24 10:40:29;;;;;;;8.18;3.78;;;;;;;;;;5095964;28;20070;-76
2021/10/24 10:42:57;;;;;;;8.15;3.17;;;;;;;;;;5095101;28;20036;-77
2021/10/24 10:45:27;;;;;;;7.35;2.92;;;;;;;;;;5097138;28;20493;-78
2021/10/24 10:47:54;;;;;;;7.50;2.90;;;;;;;;;;5097569;28;20063;-76
2021/10/24 10:50:29;;;;;;;7.63;3.25;;;;;;;;;;5097358;28;20047;-77
2021/10/24 10:52:56;;;;;;;5.30;3.20;;;;;;;;;;5102655;28;20047;-77
2021/10/24 10:55:22;;;;;;;24.25;14.85;;;;;;;;;;5119243;28;20020;-76
2021/10/24 10:57:48;;;;;;;9.60;5.38;;;;;;;;;;5111732;28;20059;-76
2021/10/24 11:00:34;;;;;;;8.70;4.13;;;;;;;;;;5098589;28;20089;-79
2021/10/24 11:02:59;;;;;;;5.03;2.75;;;;;;;;;;5097055;28;20157;-77
2021/10/24 11:05:35;;;;;;;6.40;2.88;;;;;;;;;;5097695;28;20067;-78
2021/10/24 11:08:00;;;;;;;;;;;;;;;;;;5097627;28;20371;-77
2021/10/24 11:10:44;;;;;;;5.67;2.53;;;;;;;;;;5097639;28;19965;-78
2021/10/24 11:13:28;;;;;;;6.30;2.80;;;;;;;;;;5095733;28;20128;-77
2021/10/24 11:15:53;;;;;;;4.68;2.75;;;;;;;;;;5097355;28;20020;-78
2021/10/24 11:18:32;;;;;;;8.60;3.38;;;;;;;;;;5097791;28;20366;-79
2021/10/24 11:20:58;;;;;;;6.20;3.42;;;;;;;;;;5098044;28;20382;-79
2021/10/24 11:23:24;;;;;;;7.28;2.67;;;;;;;;;;5098115;28;20504;-77
2021/10/24 11:25:51;;;;;;;7.90;2.55;;;;;;;;;;5096460;28;20027;-77
2021/10/24 11:28:20;;;;;;;6.82;3.05;;;;;;;;;;5096669;28;20358;-77
2021/10/24 11:30:55;;;;;;;7.80;2.45;;;;;;;;;;5099186;28;20035;-77
2021/10/24 11:33:20;;;;;;;10.38;2.78;;;;;;;;;;5101255;28;20048;-77
2021/10/24 11:35:47;;;;;;;5.07;2.25;;;;;;;;;;5095586;28;20081;-76
2021/10/24 11:38:14;;;;;;;9.82;2.38;;;;;;;;;;5094326;28;20036;-75
2021/10/24 11:40:43;;;;;;;11.20;5.93;;;;;;;;;;5074075;28;20083;-75
2021/10/24 11:43:14;;;;;;;11.93;2.67;;;;;;;;;;5075374;28;20043;-75
2021/10/24 11:45:49;;;;;;;6.28;2.40;;;;;;;;;;5086409;28;20031;-75
2021/10/24 11:48:19;;;;;;;4.85;2.20;;;;;;;;;;5094361;28;20036;-75
2021/10/24 11:50:48;;;;;;;6.05;2.55;;;;;;;;;;5094882;28;20032;-75
2021/10/24 11:53:22;;;;;;;6.55;2.15;;;;;;;;;;5094465;28;20102;-75
2021/10/24 11:55:50;;;;;;;8.32;2.00;;;;;;;;;;5094749;28;20501;-74
2021/10/24 11:58:27;;;;;;;4.80;1.90;;;;;;;;;;5094645;28;20130;-74
2021/10/24 12:01:10;;;;;;;8.63;1.92;;;;;;;;;;5094812;28;20482;-74
2021/10/24 12:03:39;;;;;;;7.43;2.08;;;;;;;;;;5094554;28;20039;-74
2021/10/24 12:06:05;;;;;;;6.05;2.00;;;;;;;;;;5093924;28;20489;-74
2021/10/24 12:08:48;;;;;;;8.57;2.20;;;;;;;;;;5094661;28;20032;-75
2021/10/24 12:11:17;;;;;;;8.02;2.20;;;;;;;;;;5094682;28;20058;-75
2021/10/24 12:13:45;;;;;;;6.03;2.35;;;;;;;;;;5093240;28;20077;-75
2021/10/24 12:16:31;;;;;;;5.80;2.13;;;;;;;;;;5094589;28;20027;-75
2021/10/24 12:19:10;;;;;;;4.80;2.13;;;;;;;;;;5094329;28;20040;-75
2021/10/24 12:21:37;;;;;;;5.75;1.80;;;;;;;;;;5094435;28;20043;-75
2021/10/24 12:24:17;;;;;;;8.45;2.10;;;;;;;;;;5094211;28;20028;-74
2021/10/24 12:26:44;;;;;;;7.55;1.63;;;;;;;;;;5076430;28;20473;-75
2021/10/24 12:29:19;;;;;;;6.95;2.10;;;;;;;;;;5094263;28;20027;-75
2021/10/24 12:32:02;;;;;;;6.75;2.10;;;;;;;;;;5094214;28;20454;-75
2021/10/24 12:34:29;;;;;;;6.18;2.65;;;;;;;;;;5094224;28;20032;-75
2021/10/24 12:36:54;;;;;;;4.78;1.83;;;;;;;;;;5094012;28;20024;-75
2021/10/24 12:39:22;;;;;;;8.45;2.30;;;;;;;;;;5093676;28;20043;-75
2021/10/24 12:41:49;;;;;;;7.28;2.55;;;;;;;;;;5093768;28;20369;-75
2021/10/24 12:44:23;;;;;;;7.05;1.80;;;;;;;;;;5094290;28;20122;-75
2021/10/24 12:46:50;;;;;;;9.05;2.38;;;;;;;;;;5093902;28;20032;-75
2021/10/24 12:49:22;;;;;;;5.10;2.13;;;;;;;;;;5093903;28;20067;-75
2021/10/24 12:51:50;;;;;;;10.15;2.15;;;;;;;;;;5093974;28;20466;-74
2021/10/24 12:54:30;;;;;;;9.60;2.45;;;;;;;;;;5092876;28;20043;-75
2021/10/24 12:56:56;;;;;;;8.77;1.83;;;;;;;;;;5094074;28;20123;-75
2021/10/24 12:59:21;;;;;;;6.85;1.90;;;;;;;;;;5093844;28;20124;-75
2021/10/24 13:01:48;;;;;;;6.07;1.98;;;;;;;;;;5093828;28;20028;-75
2021/10/24 13:04:14;;;;;;;5.75;2.17;;;;;;;;;;5093931;28;20366;-74
2021/10/24 13:06:40;;;;;;;9.93;1.95;;;;;;;;;;5093879;28;20035;-75
2021/10/24 13:09:06;;;;;;;6.43;2.47;;;;;;;;;;5093321;28;20055;-75
2021/10/24 13:11:31;;;;;;;7.05;2.13;;;;;;;;;;5092417;28;20039;-75
2021/10/24 13:13:57;;;;;;;6.43;2.40;;;;;;;;;;5093625;28;20040;-75
2021/10/24 13:16:23;;;;;;;3.92;2.40;;;;;;;;;;5093670;28;20071;-75
2021/10/24 13:18:48;;;;;;;4.57;1.75;;;;;;;;;;5093261;28;20529;-75
2021/10/24 13:24:00;;;;;;;7.50;2.10;;;;;;;;;;5093630;28;20093;-75
2021/10/24 13:26:27;;;;;;;6.82;2.13;;;;;;;;;;5093516;28;20035;-75
2021/10/24 13:28:53;;;;;;;6.50;1.95;;;;;;;;;;5093226;28;20466;-75
2021/10/24 13:31:18;;;;;;;6.38;2.00;;;;;;;;;;5093539;28;20032;-74
2021/10/24 13:33:44;;;;;;;5.95;2.33;;;;;;;;;;5093444;28;20119;-76
2021/10/24 13:36:14;;;;;;;7.03;2.28;;;;;;;;;;5093358;28;20044;-76
2021/10/24 13:38:41;;;;;;;5.03;1.80;;;;;;;;;;5075420;28;20028;-76
2021/10/24 13:41:07;;;;;;;5.95;2.30;;;;;;;;;;5092713;28;20060;-76
2021/10/24 13:43:32;;;;;;;5.22;2.60;;;;;;;;;;5092136;28;20052;-76
2021/10/24 13:45:57;;;;;;;8.38;3.33;;;;;;;;;;5093330;28;20083;-76
2021/10/24 13:48:23;;;;;;;12.90;5.68;;;;;;;;;;5093195;28;20096;-76
2021/10/24 13:50:49;;;;;;;5.10;2.20;;;;;;;;;;5092082;28;20074;-76
2021/10/24 13:53:14;;;;;;;6.00;1.80;;;;;;;;;;5094226;28;20067;-75
2021/10/24 13:55:41;;;;;;;8.23;2.33;;;;;;;;;;5097193;28;20503;-75
2021/10/24 13:58:06;;;;;;;4.95;2.00;;;;;;;;;;5096909;28;20078;-75
2021/10/24 14:00:32;;;;;;;4.20;1.67;;;;;;;;;;5097084;28;20074;-75
2021/10/24 14:03:01;;;;;;;7.30;2.47;;;;;;;;;;5097093;28;20080;-75
2021/10/24 14:05:27;;;;;;;5.47;1.73;;;;;;;;;;5097098;28;20046;-76
2021/10/24 14:07:53;;;;;;;5.90;2.08;;;;;;;;;;5096937;28;20557;-75
2021/10/24 14:10:19;;;;;;;7.75;2.13;;;;;;;;;;5095555;28;20040;-75
2021/10/24 14:12:45;;;;;;;5.55;1.50;;;;;;;;;;5096471;28;20043;-75
2021/10/24 14:15:11;;;;;;;5.35;1.88;;;;;;;;;;5096698;28;20089;-75
2021/10/24 14:17:37;;;;;;;7.28;1.80;;;;;;;;;;5095903;28;20123;-75
2021/10/24 14:20:04;;;;;;;7.90;2.10;;;;;;;;;;5096937;28;20132;-75
2021/10/24 14:22:29;;;;;;;4.72;1.85;;;;;;;;;;5095415;28;20089;-75
2021/10/24 14:24:55;;;;;;;4.03;1.67;;;;;;;;;;5096573;28;20035;-75
2021/10/24 14:27:21;;;;;;;6.68;2.10;;;;;;;;;;5096605;28;20131;-75
2021/10/24 14:29:46;;;;;;;5.40;1.77;;;;;;;;;;5096890;28;20043;-76
2021/10/24 14:32:12;;;;;;;7.95;1.63;;;;;;;;;;5096714;28;20481;-76
2021/10/24 14:34:39;;;;;;;3.95;1.67;;;;;;;;;;5096583;28;20100;-76
2021/10/24 14:37:06;;;;;;;7.45;2.30;;;;;;;;;;5096813;28;20043;-76
2021/10/24 14:39:32;;;;;;;7.05;2.13;;;;;;;;;;5095201;28;20028;-75
2021/10/24 14:41:57;;;;;;;5.57;2.00;;;;;;;;;;5096218;28;20035;-75
2021/10/24 14:44:23;;;;;;;5.53;1.85;;;;;;;;;;5096068;28;20044;-76
2021/10/24 14:46:49;;;;;;;11.13;2.25;;;;;;;;;;5096427;28;20032;-75
2021/10/24 14:49:15;;;;;;;4.47;2.13;;;;;;;;;;5096036;28;20028;-76